Aviation Digital Data Service (ADDS)

Output produced by METARs form (0758 UTC 20 March 2019)
found at http://www.aviationweather.gov/metar/data/
 
METAR text: KTEB 200751Z 00000KT 10SM CLR 01/M03 A3039 RMK AO2 SLP291 T00061033
Conditions at: KTEB (TETERBORO , NJ, US) observed 0751 UTC 20 March 2019
Temperature: 0.6°C (33°F)
Dewpoint: -3.3°C (26°F) [RH = 75%]
Pressure (altimeter): 30.39 inches Hg (1029.2 mb)
[Sea-level pressure: 1029.1 mb]
Winds: calm
Visibility: 10 or more miles (16+ km)
Ceiling: at least 12,000 feet AGL
Clouds: sky clear below 12,000 feet AGL
Weather: no significant weather observed at this time

METAR text: KTEB 200651Z 00000KT 10SM CLR 02/M03 A3040 RMK AO2 SLP295 T00221033
Conditions at: KTEB (TETERBORO , NJ, US) observed 0651 UTC 20 March 2019
Temperature: 2.2°C (36°F)
Dewpoint: -3.3°C (26°F) [RH = 67%]
Pressure (altimeter): 30.40 inches Hg (1029.5 mb)
[Sea-level pressure: 1029.5 mb]
Winds: calm
Visibility: 10 or more miles (16+ km)
Ceiling: at least 12,000 feet AGL
Clouds: sky clear below 12,000 feet AGL
Weather: no significant weather observed at this time

METAR text: KTEB 200551Z 00000KT 10SM CLR 03/M03 A3041 RMK AO2 SLP297 T00281033 10072 20017 55000
Conditions at: KTEB (TETERBORO , NJ, US) observed 0551 UTC 20 March 2019
Temperature: 2.8°C (37°F)
Dewpoint: -3.3°C (26°F) [RH = 64%]
Pressure (altimeter): 30.41 inches Hg (1029.9 mb)
[Sea-level pressure: 1029.7 mb]
Winds: calm
Visibility: 10 or more miles (16+ km)
Ceiling: at least 12,000 feet AGL
Clouds: sky clear below 12,000 feet AGL
Weather: no significant weather observed at this time

METAR text: KTEB 200451Z 00000KT 10SM CLR 03/M03 A3040 RMK AO2 SLP295 T00281033 401001017
Conditions at: KTEB (TETERBORO , NJ, US) observed 0451 UTC 20 March 2019
Temperature: 2.8°C (37°F)
Dewpoint: -3.3°C (26°F) [RH = 64%]
Pressure (altimeter): 30.40 inches Hg (1029.5 mb)
[Sea-level pressure: 1029.5 mb]
Winds: calm
Visibility: 10 or more miles (16+ km)
Ceiling: at least 12,000 feet AGL
Clouds: sky clear below 12,000 feet AGL
Weather: no significant weather observed at this time

METAR text: KTEB 200351Z 00000KT 10SM CLR 03/M05 A3041 RMK AO2 SLP296 T00281050
Conditions at: KTEB (TETERBORO , NJ, US) observed 0351 UTC 20 March 2019
Temperature: 2.8°C (37°F)
Dewpoint: -5.0°C (23°F) [RH = 56%]
Pressure (altimeter): 30.41 inches Hg (1029.9 mb)
[Sea-level pressure: 1029.6 mb]
Winds: calm
Visibility: 10 or more miles (16+ km)
Ceiling: at least 12,000 feet AGL
Clouds: sky clear below 12,000 feet AGL
Weather: no significant weather observed at this time

METAR text: KTEB 200251Z 20005KT 10SM CLR 03/M04 A3041 RMK AO2 SLP297 T00331044 50011
Conditions at: KTEB (TETERBORO , NJ, US) observed 0251 UTC 20 March 2019
Temperature: 3.3°C (38°F)
Dewpoint: -4.4°C (24°F) [RH = 57%]
Pressure (altimeter): 30.41 inches Hg (1029.9 mb)
[Sea-level pressure: 1029.7 mb]
Winds: from the SSW (200 degrees) at 6 MPH (5 knots; 2.6 m/s)
Visibility: 10 or more miles (16+ km)
Ceiling: at least 12,000 feet AGL
Clouds: sky clear below 12,000 feet AGL
Weather: no significant weather observed at this time

METAR text: KTEB 200151Z 20005KT 10SM CLR 04/M04 A3041 RMK AO2 SLP298 T00391044
Conditions at: KTEB (TETERBORO , NJ, US) observed 0151 UTC 20 March 2019
Temperature: 3.9°C (39°F)
Dewpoint: -4.4°C (24°F) [RH = 55%]
Pressure (altimeter): 30.41 inches Hg (1029.9 mb)
[Sea-level pressure: 1029.8 mb]
Winds: from the SSW (200 degrees) at 6 MPH (5 knots; 2.6 m/s)
Visibility: 10 or more miles (16+ km)
Ceiling: at least 12,000 feet AGL
Clouds: sky clear below 12,000 feet AGL
Weather: no significant weather observed at this time

METAR text: KTEB 200051Z 00000KT 10SM CLR 07/M08 A3039 RMK AO2 SLP291 T00671083
Conditions at: KTEB (TETERBORO , NJ, US) observed 0051 UTC 20 March 2019
Temperature: 6.7°C (44°F)
Dewpoint: -8.3°C (17°F) [RH = 33%]
Pressure (altimeter): 30.39 inches Hg (1029.2 mb)
[Sea-level pressure: 1029.1 mb]
Winds: calm
Visibility: 10 or more miles (16+ km)
Ceiling: at least 12,000 feet AGL
Clouds: sky clear below 12,000 feet AGL
Weather: no significant weather observed at this time

METAR text: KTEB 192351Z 36004KT 10SM CLR 07/M08 A3038 RMK AO2 SLP286 T00721083 10100 20072 53004
Conditions at: KTEB (TETERBORO , NJ, US) observed 2351 UTC 19 March 2019
Temperature: 7.2°C (45°F)
Dewpoint: -8.3°C (17°F) [RH = 32%]
Pressure (altimeter): 30.38 inches Hg (1028.9 mb)
[Sea-level pressure: 1028.6 mb]
Winds: from the N (360 degrees) at 5 MPH (4 knots; 2.1 m/s)
Visibility: 10 or more miles (16+ km)
Ceiling: at least 12,000 feet AGL
Clouds: sky clear below 12,000 feet AGL
Weather: no significant weather observed at this time

METAR text: KTEB 192251Z 35006KT 10SM CLR 08/M09 A3036 RMK AO2 SLP281 T00781094
Conditions at: KTEB (TETERBORO , NJ, US) observed 2251 UTC 19 March 2019
Temperature: 7.8°C (46°F)
Dewpoint: -9.4°C (15°F) [RH = 28%]
Pressure (altimeter): 30.36 inches Hg (1028.2 mb)
[Sea-level pressure: 1028.1 mb]
Winds: from the N (350 degrees) at 7 MPH (6 knots; 3.1 m/s)
Visibility: 10 or more miles (16+ km)
Ceiling: at least 12,000 feet AGL
Clouds: sky clear below 12,000 feet AGL
Weather: no significant weather observed at this time

METAR text: KTEB 192151Z 30006KT 10SM FEW090 09/M09 A3036 RMK AO2 SLP279 T00891089
Conditions at: KTEB (TETERBORO , NJ, US) observed 2151 UTC 19 March 2019
Temperature: 8.9°C (48°F)
Dewpoint: -8.9°C (16°F) [RH = 27%]
Pressure (altimeter): 30.36 inches Hg (1028.2 mb)
[Sea-level pressure: 1027.9 mb]
Winds: from the WNW (300 degrees) at 7 MPH (6 knots; 3.1 m/s)
Visibility: 10 or more miles (16+ km)
Ceiling: at least 12,000 feet AGL
Clouds: few clouds at 9000 feet AGL
Weather: no significant weather observed at this time

METAR text: KTEB 192051Z 33007KT 10SM SCT095 08/M08 A3037 RMK AO2 SLP282 T00831083 56011
Conditions at: KTEB (TETERBORO , NJ, US) observed 2051 UTC 19 March 2019
Temperature: 8.3°C (47°F)
Dewpoint: -8.3°C (17°F) [RH = 30%]
Pressure (altimeter): 30.37 inches Hg (1028.5 mb)
[Sea-level pressure: 1028.2 mb]
Winds: from the NNW (330 degrees) at 8 MPH (7 knots; 3.6 m/s)
Visibility: 10 or more miles (16+ km)
Ceiling: at least 12,000 feet AGL
Clouds: scattered clouds at 9500 feet AGL
Weather: no significant weather observed at this time

METAR text: KTEB 191951Z 31007KT 10SM FEW080 OVC090 09/M08 A3037 RMK AO2 SLP284 T00891078
Conditions at: KTEB (TETERBORO , NJ, US) observed 1951 UTC 19 March 2019
Temperature: 8.9°C (48°F)
Dewpoint: -7.8°C (18°F) [RH = 30%]
Pressure (altimeter): 30.37 inches Hg (1028.5 mb)
[Sea-level pressure: 1028.4 mb]
Winds: from the NW (310 degrees) at 8 MPH (7 knots; 3.6 m/s)
Visibility: 10 or more miles (16+ km)
Ceiling: 9000 feet AGL
Clouds: few clouds at 8000 feet AGL
overcast cloud deck at 9000 feet AGL
Weather: no significant weather observed at this time

METAR text: KTEB 191851Z 34007KT 290V010 10SM BKN080 10/M07 A3037 RMK AO2 SLP284 T01001072
Conditions at: KTEB (TETERBORO , NJ, US) observed 1851 UTC 19 March 2019
Temperature: 10.0°C (50°F)
Dewpoint: -7.2°C (19°F) [RH = 29%]
Pressure (altimeter): 30.37 inches Hg (1028.5 mb)
[Sea-level pressure: 1028.4 mb]
Winds: from the NNW (340 degrees) at 8 MPH (7 knots; 3.6 m/s)
Visibility: 10 or more miles (16+ km)
Ceiling: 8000 feet AGL
Clouds: broken clouds at 8000 feet AGL
Weather: no significant weather observed at this time

METAR text: KTEB 191751Z 34010KT 10SM BKN080 08/M09 A3040 RMK AO2 SLP293 T00831089 10089 20000 58013
Conditions at: KTEB (TETERBORO , NJ, US) observed 1751 UTC 19 March 2019
Temperature: 8.3°C (47°F)
Dewpoint: -8.9°C (16°F) [RH = 28%]
Pressure (altimeter): 30.40 inches Hg (1029.5 mb)
[Sea-level pressure: 1029.3 mb]
Winds: from the NNW (340 degrees) at 12 MPH (10 knots; 5.1 m/s)
Visibility: 10 or more miles (16+ km)
Ceiling: 8000 feet AGL
Clouds: broken clouds at 8000 feet AGL
Weather: no significant weather observed at this time

METAR text: KTEB 191651Z 29012KT 10SM CLR 08/M07 A3042 RMK AO2 SLP300 T00831067
Conditions at: KTEB (TETERBORO , NJ, US) observed 1651 UTC 19 March 2019
Temperature: 8.3°C (47°F)
Dewpoint: -6.7°C (20°F) [RH = 34%]
Pressure (altimeter): 30.42 inches Hg (1030.2 mb)
[Sea-level pressure: 1030.0 mb]
Winds: from the WNW (290 degrees) at 14 MPH (12 knots; 6.2 m/s)
Visibility: 10 or more miles (16+ km)
Ceiling: at least 12,000 feet AGL
Clouds: sky clear below 12,000 feet AGL
Weather: no significant weather observed at this time

METAR text: KTEB 191551Z VRB05KT 10SM CLR 07/M06 A3043 RMK AO2 SLP302 T00721056
Conditions at: KTEB (TETERBORO , NJ, US) observed 1551 UTC 19 March 2019
Temperature: 7.2°C (45°F)
Dewpoint: -5.6°C (22°F) [RH = 40%]
Pressure (altimeter): 30.43 inches Hg (1030.6 mb)
[Sea-level pressure: 1030.2 mb]
Winds: variable direction winds at 6 MPH (5 knots; 2.6 m/s)
Visibility: 10 or more miles (16+ km)
Ceiling: at least 12,000 feet AGL
Clouds: sky clear below 12,000 feet AGL
Weather: no significant weather observed at this time

METAR text: KTEB 191451Z 35003KT 10SM CLR 05/M06 A3044 RMK AO2 SLP306 T00501061 50006
Conditions at: KTEB (TETERBORO , NJ, US) observed 1451 UTC 19 March 2019
Temperature: 5.0°C (41°F)
Dewpoint: -6.1°C (21°F) [RH = 44%]
Pressure (altimeter): 30.44 inches Hg (1030.9 mb)
[Sea-level pressure: 1030.6 mb]
Winds: from the N (350 degrees) at 3 MPH (3 knots; 1.5 m/s)
Visibility: 10 or more miles (16+ km)
Ceiling: at least 12,000 feet AGL
Clouds: sky clear below 12,000 feet AGL
Weather: no significant weather observed at this time

METAR text: KTEB 191351Z 31003KT 10SM CLR 04/M06 A3044 RMK AO2 SLP307 T00391056
Conditions at: KTEB (TETERBORO , NJ, US) observed 1351 UTC 19 March 2019
Temperature: 3.9°C (39°F)
Dewpoint: -5.6°C (22°F) [RH = 50%]
Pressure (altimeter): 30.44 inches Hg (1030.9 mb)
[Sea-level pressure: 1030.7 mb]
Winds: from the NW (310 degrees) at 3 MPH (3 knots; 1.5 m/s)
Visibility: 10 or more miles (16+ km)
Ceiling: at least 12,000 feet AGL
Clouds: sky clear below 12,000 feet AGL
Weather: no significant weather observed at this time

METAR text: KTEB 191251Z 00000KT 10SM CLR 03/M05 A3044 RMK AO2 SLP306 T00331050
Conditions at: KTEB (TETERBORO , NJ, US) observed 1251 UTC 19 March 2019
Temperature: 3.3°C (38°F)
Dewpoint: -5.0°C (23°F) [RH = 54%]
Pressure (altimeter): 30.44 inches Hg (1030.9 mb)
[Sea-level pressure: 1030.6 mb]
Winds: calm
Visibility: 10 or more miles (16+ km)
Ceiling: at least 12,000 feet AGL
Clouds: sky clear below 12,000 feet AGL
Weather: no significant weather observed at this time

METAR text: KTEB 191151Z 00000KT 10SM CLR 00/M06 A3042 RMK AO2 SLP300 T00001056 10028 21017 53019
Conditions at: KTEB (TETERBORO , NJ, US) observed 1151 UTC 19 March 2019
Temperature: 0.0°C (32°F)
Dewpoint: -5.6°C (22°F) [RH = 66%]
Pressure (altimeter): 30.42 inches Hg (1030.2 mb)
[Sea-level pressure: 1030.0 mb]
Winds: calm
Visibility: 10 or more miles (16+ km)
Ceiling: at least 12,000 feet AGL
Clouds: sky clear below 12,000 feet AGL
Weather: no significant weather observed at this time

METAR text: KTEB 191051Z 00000KT 10SM CLR M02/M07 A3040 RMK AO2 SLP293 T10171067
Conditions at: KTEB (TETERBORO , NJ, US) observed 1051 UTC 19 March 2019
Temperature: -1.7°C (29°F)
Dewpoint: -6.7°C (20°F) [RH = 69%]
Pressure (altimeter): 30.40 inches Hg (1029.5 mb)
[Sea-level pressure: 1029.3 mb]
Winds: calm
Visibility: 10 or more miles (16+ km)
Ceiling: at least 12,000 feet AGL
Clouds: sky clear below 12,000 feet AGL
Weather: no significant weather observed at this time

METAR text: KTEB 190951Z 00000KT 10SM CLR M02/M07 A3038 RMK AO2 SLP286 T10171067
Conditions at: KTEB (TETERBORO , NJ, US) observed 0951 UTC 19 March 2019
Temperature: -1.7°C (29°F)
Dewpoint: -6.7°C (20°F) [RH = 69%]
Pressure (altimeter): 30.38 inches Hg (1028.9 mb)
[Sea-level pressure: 1028.6 mb]
Winds: calm
Visibility: 10 or more miles (16+ km)
Ceiling: at least 12,000 feet AGL
Clouds: sky clear below 12,000 feet AGL
Weather: no significant weather observed at this time

METAR text: KTEB 190851Z 00000KT 10SM CLR 00/M07 A3036 RMK AO2 SLP280 T00001072 51004
Conditions at: KTEB (TETERBORO , NJ, US) observed 0851 UTC 19 March 2019
Temperature: 0.0°C (32°F)
Dewpoint: -7.2°C (19°F) [RH = 58%]
Pressure (altimeter): 30.36 inches Hg (1028.2 mb)
[Sea-level pressure: 1028.0 mb]
Winds: calm
Visibility: 10 or more miles (16+ km)
Ceiling: at least 12,000 feet AGL
Clouds: sky clear below 12,000 feet AGL
Weather: no significant weather observed at this time

METAR text: KTEB 190751Z 00000KT 10SM CLR 01/M08 A3036 RMK AO2 SLP280 T00061078
Conditions at: KTEB (TETERBORO , NJ, US) observed 0751 UTC 19 March 2019
Temperature: 0.6°C (33°F)
Dewpoint: -7.8°C (18°F) [RH = 53%]
Pressure (altimeter): 30.36 inches Hg (1028.2 mb)
[Sea-level pressure: 1028.0 mb]
Winds: calm
Visibility: 10 or more miles (16+ km)
Ceiling: at least 12,000 feet AGL
Clouds: sky clear below 12,000 feet AGL
Weather: no significant weather observed at this time

METAR text: KTEB 190651Z 33004KT 10SM CLR 01/M08 A3037 RMK AO2 SLP283 T00061078
Conditions at: KTEB (TETERBORO , NJ, US) observed 0651 UTC 19 March 2019
Temperature: 0.6°C (33°F)
Dewpoint: -7.8°C (18°F) [RH = 53%]
Pressure (altimeter): 30.37 inches Hg (1028.5 mb)
[Sea-level pressure: 1028.3 mb]
Winds: from the NNW (330 degrees) at 5 MPH (4 knots; 2.1 m/s)
Visibility: 10 or more miles (16+ km)
Ceiling: at least 12,000 feet AGL
Clouds: sky clear below 12,000 feet AGL
Weather: no significant weather observed at this time

METAR text: KTEB 190551Z 36004KT 10SM OVC090 03/M08 A3035 RMK AO2 SLP276 T00281078 10061 20017 53007
Conditions at: KTEB (TETERBORO , NJ, US) observed 0551 UTC 19 March 2019
Temperature: 2.8°C (37°F)
Dewpoint: -7.8°C (18°F) [RH = 46%]
Pressure (altimeter): 30.35 inches Hg (1027.9 mb)
[Sea-level pressure: 1027.6 mb]
Winds: from the N (360 degrees) at 5 MPH (4 knots; 2.1 m/s)
Visibility: 10 or more miles (16+ km)
Ceiling: 9000 feet AGL
Clouds: overcast cloud deck at 9000 feet AGL
Weather: no significant weather observed at this time

METAR text: KTEB 190451Z 00000KT 10SM CLR 03/M08 A3034 RMK AO2 SLP272 T00281083 400831022
Conditions at: KTEB (TETERBORO , NJ, US) observed 0451 UTC 19 March 2019
Temperature: 2.8°C (37°F)
Dewpoint: -8.3°C (17°F) [RH = 44%]
Pressure (altimeter): 30.34 inches Hg (1027.5 mb)
[Sea-level pressure: 1027.2 mb]
Winds: calm
Visibility: 10 or more miles (16+ km)
Ceiling: at least 12,000 feet AGL
Clouds: sky clear below 12,000 feet AGL
Weather: no significant weather observed at this time

METAR text: KTEB 190351Z 00000KT 10SM CLR 03/M08 A3033 RMK AO2 SLP270 T00281083
Conditions at: KTEB (TETERBORO , NJ, US) observed 0351 UTC 19 March 2019
Temperature: 2.8°C (37°F)
Dewpoint: -8.3°C (17°F) [RH = 44%]
Pressure (altimeter): 30.33 inches Hg (1027.2 mb)
[Sea-level pressure: 1027.0 mb]
Winds: calm
Visibility: 10 or more miles (16+ km)
Ceiling: at least 12,000 feet AGL
Clouds: sky clear below 12,000 feet AGL
Weather: no significant weather observed at this time

METAR text: KTEB 190251Z 02004KT 10SM OVC090 05/M10 A3033 RMK AO2 SLP269 T00501100 51012
Conditions at: KTEB (TETERBORO , NJ, US) observed 0251 UTC 19 March 2019
Temperature: 5.0°C (41°F)
Dewpoint: -10.0°C (14°F) [RH = 33%]
Pressure (altimeter): 30.33 inches Hg (1027.2 mb)
[Sea-level pressure: 1026.9 mb]
Winds: from the NNE (20 degrees) at 5 MPH (4 knots; 2.1 m/s)
Visibility: 10 or more miles (16+ km)
Ceiling: 9000 feet AGL
Clouds: overcast cloud deck at 9000 feet AGL
Weather: no significant weather observed at this time

METAR text: KTEB 190151Z 00000KT 10SM OVC090 06/M11 A3032 RMK AO2 SLP267 T00561106
Conditions at: KTEB (TETERBORO , NJ, US) observed 0151 UTC 19 March 2019
Temperature: 5.6°C (42°F)
Dewpoint: -10.6°C (13°F) [RH = 30%]
Pressure (altimeter): 30.32 inches Hg (1026.8 mb)
[Sea-level pressure: 1026.7 mb]
Winds: calm
Visibility: 10 or more miles (16+ km)
Ceiling: 9000 feet AGL
Clouds: overcast cloud deck at 9000 feet AGL
Weather: no significant weather observed at this time

METAR text: KTEB 190051Z 31003KT 10SM OVC090 06/M10 A3031 RMK AO2 SLP264 T00561100
Conditions at: KTEB (TETERBORO , NJ, US) observed 0051 UTC 19 March 2019
Temperature: 5.6°C (42°F)
Dewpoint: -10.0°C (14°F) [RH = 31%]
Pressure (altimeter): 30.31 inches Hg (1026.5 mb)
[Sea-level pressure: 1026.4 mb]
Winds: from the NW (310 degrees) at 3 MPH (3 knots; 1.5 m/s)
Visibility: 10 or more miles (16+ km)
Ceiling: 9000 feet AGL
Clouds: overcast cloud deck at 9000 feet AGL
Weather: no significant weather observed at this time

METAR text: KTEB 182351Z 36004KT 10SM BKN090 06/M11 A3029 RMK AO2 SLP257 T00561106 10083 20056 53016
Conditions at: KTEB (TETERBORO , NJ, US) observed 2351 UTC 18 March 2019
Temperature: 5.6°C (42°F)
Dewpoint: -10.6°C (13°F) [RH = 30%]
Pressure (altimeter): 30.29 inches Hg (1025.8 mb)
[Sea-level pressure: 1025.7 mb]
Winds: from the N (360 degrees) at 5 MPH (4 knots; 2.1 m/s)
Visibility: 10 or more miles (16+ km)
Ceiling: 9000 feet AGL
Clouds: broken clouds at 9000 feet AGL
Weather: no significant weather observed at this time

METAR text: KTEB 182251Z 35007KT 10SM FEW090 06/M10 A3027 RMK AO2 SLP251 T00611100
Conditions at: KTEB (TETERBORO , NJ, US) observed 2251 UTC 18 March 2019
Temperature: 6.1°C (43°F)
Dewpoint: -10.0°C (14°F) [RH = 30%]
Pressure (altimeter): 30.27 inches Hg (1025.1 mb)
[Sea-level pressure: 1025.1 mb]
Winds: from the N (350 degrees) at 8 MPH (7 knots; 3.6 m/s)
Visibility: 10 or more miles (16+ km)
Ceiling: at least 12,000 feet AGL
Clouds: few clouds at 9000 feet AGL
Weather: no significant weather observed at this time

METAR text: KTEB 182151Z 28006KT 10SM OVC090 07/M09 A3025 RMK AO2 SLP244 T00721094
Conditions at: KTEB (TETERBORO , NJ, US) observed 2151 UTC 18 March 2019
Temperature: 7.2°C (45°F)
Dewpoint: -9.4°C (15°F) [RH = 30%]
Pressure (altimeter): 30.25 inches Hg (1024.5 mb)
[Sea-level pressure: 1024.4 mb]
Winds: from the W (280 degrees) at 7 MPH (6 knots; 3.1 m/s)
Visibility: 10 or more miles (16+ km)
Ceiling: 9000 feet AGL
Clouds: overcast cloud deck at 9000 feet AGL
Weather: no significant weather observed at this time

METAR text: KTEB 182051Z 34008KT 10SM OVC090 07/M09 A3025 RMK AO2 SLP242 T00671094 55006
Conditions at: KTEB (TETERBORO , NJ, US) observed 2051 UTC 18 March 2019
Temperature: 6.7°C (44°F)
Dewpoint: -9.4°C (15°F) [RH = 31%]
Pressure (altimeter): 30.25 inches Hg (1024.5 mb)
[Sea-level pressure: 1024.2 mb]
Winds: from the NNW (340 degrees) at 9 MPH (8 knots; 4.1 m/s)
Visibility: 10 or more miles (16+ km)
Ceiling: 9000 feet AGL
Clouds: overcast cloud deck at 9000 feet AGL
Weather: no significant weather observed at this time

Forecast for: KTEB (TETERBORO , NJ, US)
Text: KTEB 200520Z 2006/2112 VRB03KT P6SM SKC
Forecast period: 0600 to 1500 UTC 20 March 2019
Forecast type: FROM: standard forecast or significant change
Winds: variable direction winds at 3 MPH (3 knots; 1.5 m/s)
Visibility: 6 or more miles 10+ km)
Clouds: clear skies
Weather: no significant weather forecast for this period
Text: FM201500 20005KT P6SM FEW250
Forecast period: 1500 to 1900 UTC 20 March 2019
Forecast type: FROM: standard forecast or significant change
Winds: from the SSW (200 degrees) at 6 MPH (5 knots; 2.6 m/s)
Visibility: 6 or more miles 10+ km)
Ceiling: at least 12,000 feet AGL
Clouds: few clouds at 25000 feet AGL
Weather: no significant weather forecast for this period
Text: FM201900 19009KT P6SM SCT200
Forecast period: 1900 to 2300 UTC 20 March 2019
Forecast type: FROM: standard forecast or significant change
Winds: from the S (190 degrees) at 10 MPH (9 knots; 4.6 m/s)
Visibility: 6 or more miles 10+ km)
Ceiling: at least 12,000 feet AGL
Clouds: scattered clouds at 20000 feet AGL
Weather: no significant weather forecast for this period
Text: FM202300 16005KT P6SM SCT150
Forecast period: 2300 UTC 20 March 2019 to 0200 UTC 21 March 2019
Forecast type: FROM: standard forecast or significant change
Winds: from the SSE (160 degrees) at 6 MPH (5 knots; 2.6 m/s)
Visibility: 6 or more miles 10+ km)
Ceiling: at least 12,000 feet AGL
Clouds: scattered clouds at 15000 feet AGL
Weather: no significant weather forecast for this period
Text: FM210200 14004KT P6SM BKN100
Forecast period: 0200 to 1000 UTC 21 March 2019
Forecast type: FROM: standard forecast or significant change
Winds: from the SE (140 degrees) at 5 MPH (4 knots; 2.1 m/s)
Visibility: 6 or more miles 10+ km)
Ceiling: 10000 feet AGL
Clouds: broken clouds at 10000 feet AGL
Weather: no significant weather forecast for this period
Text: FM211000 10004KT P6SM BKN050 OVC100
Forecast period: 1000 to 1200 UTC 21 March 2019
Forecast type: FROM: standard forecast or significant change
Winds: from the E (100 degrees) at 5 MPH (4 knots; 2.1 m/s)
Visibility: 6 or more miles 10+ km)
Ceiling: 5000 feet AGL
Clouds: broken clouds at 5000 feet AGL
overcast cloud deck at 10000 feet AGL
Weather: no significant weather forecast for this period